createdAt,value
2023-02-19T00:00:03.243Z,9.32
2023-02-19T00:02:42.499Z,7.88
2023-02-19T00:05:10.726Z,8.88
2023-02-19T00:07:38.925Z,8.68
2023-02-19T00:10:07.792Z,8.48
2023-02-19T00:12:35.945Z,8.65
2023-02-19T00:15:06.357Z,9.80
2023-02-19T00:17:34.755Z,9.63
2023-02-19T00:20:03.008Z,8.68
2023-02-19T00:22:31.177Z,9.93
2023-02-19T00:24:59.411Z,8.90
2023-02-19T00:27:27.639Z,8.30
2023-02-19T00:29:55.763Z,6.97
2023-02-19T00:32:25.621Z,7.15
2023-02-19T00:34:53.808Z,7.22
2023-02-19T00:37:21.952Z,5.63
2023-02-19T00:39:50.208Z,5.93
2023-02-19T00:42:18.366Z,5.43
2023-02-19T00:44:46.574Z,5.07
2023-02-19T00:47:14.682Z,4.20
2023-02-19T00:49:44.198Z,5.75
2023-02-19T00:52:12.422Z,4.85
2023-02-19T00:54:40.993Z,5.00
2023-02-19T00:57:09.163Z,5.95
2023-02-19T00:59:37.775Z,5.80
2023-02-19T01:02:06.005Z,4.85
2023-02-19T01:04:34.171Z,4.97
2023-02-19T01:07:05.132Z,5.15
2023-02-19T01:09:33.288Z,5.10
2023-02-19T01:12:02.227Z,5.50
2023-02-19T01:14:30.450Z,6.60
2023-02-19T01:16:58.637Z,6.18
2023-02-19T01:19:27.222Z,6.28
2023-02-19T01:21:55.350Z,6.03
2023-02-19T01:24:24.856Z,6.72
2023-02-19T01:26:53.230Z,6.28
2023-02-19T01:29:21.429Z,5.75
2023-02-19T01:31:49.724Z,5.70
2023-02-19T01:34:18.042Z,5.40
2023-02-19T01:36:46.347Z,5.50
2023-02-19T01:39:14.685Z,4.78
2023-02-19T01:41:44.290Z,4.53
2023-02-19T01:45:12.854Z,4.68
2023-02-19T01:47:41.281Z,4.20
2023-02-19T01:50:09.732Z,3.22
2023-02-19T01:52:38.523Z,3.58
2023-02-19T01:55:13.071Z,3.40
2023-02-19T01:57:47.358Z,3.78
2023-02-19T02:00:19.089Z,4.03
2023-02-19T02:02:52.721Z,4.40
2023-02-19T02:05:33.910Z,4.80
2023-02-19T02:08:22.690Z,6.75
2023-02-19T02:10:51.833Z,6.38
2023-02-19T02:13:22.033Z,8.13
2023-02-19T02:16:01.036Z,8.13
2023-02-19T02:18:41.370Z,8.27
2023-02-19T02:21:36.167Z,8.77
2023-02-19T02:24:25.983Z,8.82
2023-02-19T02:27:13.798Z,12.05
2023-02-19T02:30:30.041Z,11.52
2023-02-19T02:33:07.693Z,11.57
2023-02-19T02:35:43.504Z,11.93
2023-02-19T02:38:14.611Z,11.88
2023-02-19T02:40:45.951Z,11.18
2023-02-19T02:43:15.505Z,11.90
2023-02-19T02:45:45.214Z,11.55
2023-02-19T02:48:31.238Z,11.50
2023-02-19T02:51:06.404Z,11.05
2023-02-19T02:54:06.983Z,10.55
2023-02-19T02:56:36.751Z,10.57
2023-02-19T02:59:09.727Z,11.65
2023-02-19T03:02:04.112Z,11.57
2023-02-19T03:04:59.829Z,11.13
2023-02-19T03:07:32.766Z,9.55
2023-02-19T03:10:03.673Z,10.75
2023-02-19T03:12:51.412Z,11.45
2023-02-19T03:15:40.049Z,11.13
2023-02-19T03:18:31.176Z,11.18
2023-02-19T03:21:00.973Z,11.57
2023-02-19T03:23:51.231Z,10.65
2023-02-19T03:26:20.571Z,11.73
2023-02-19T03:29:12.571Z,11.20
2023-02-19T03:31:46.369Z,10.98
2023-02-19T03:34:25.767Z,11.48
2023-02-19T03:38:09.103Z,12.45
2023-02-19T03:40:46.131Z,11.52
2023-02-19T03:43:22.430Z,10.75
2023-02-19T03:46:04.427Z,12.32
2023-02-19T03:48:36.667Z,12.68
2023-02-19T03:51:32.119Z,11.10
2023-02-19T03:54:12.548Z,11.07
2023-02-19T03:56:48.841Z,11.52
2023-02-19T03:59:23.696Z,10.60
2023-02-19T04:01:58.459Z,11.10
2023-02-19T04:04:32.833Z,10.82
2023-02-19T04:07:02.502Z,10.45
2023-02-19T04:09:38.913Z,10.07
2023-02-19T04:12:14.196Z,10.55
2023-02-19T04:14:47.938Z,10.43
2023-02-19T04:17:23.184Z,12.15
2023-02-19T04:19:53.908Z,11.57
2023-02-19T04:22:24.559Z,11.18
2023-02-19T04:24:56.320Z,11.77
2023-02-19T04:27:24.734Z,10.33
2023-02-19T04:29:52.886Z,11.27
2023-02-19T04:32:21.572Z,10.75
2023-02-19T04:34:49.787Z,11.52
2023-02-19T04:37:17.982Z,11.38
2023-02-19T04:39:47.845Z,11.52
2023-02-19T04:42:15.962Z,11.10
2023-02-19T04:44:44.399Z,11.48
2023-02-19T04:47:12.628Z,11.38
2023-02-19T04:49:40.786Z,11.63
2023-02-19T04:52:08.929Z,10.35
2023-02-19T04:54:37.151Z,11.50
2023-02-19T04:57:06.711Z,12.45
2023-02-19T04:59:35.519Z,12.93
2023-02-19T05:02:03.736Z,11.13
2023-02-19T05:04:32.138Z,12.80
2023-02-19T05:07:00.318Z,11.45
2023-02-19T05:09:28.427Z,11.73
2023-02-19T05:11:56.560Z,11.20
2023-02-19T05:14:26.254Z,11.73
2023-02-19T05:16:54.424Z,10.45
2023-02-19T05:19:22.610Z,11.90
2023-02-19T05:21:50.763Z,13.65
2023-02-19T05:24:18.964Z,11.00
2023-02-19T05:26:48.180Z,10.45
2023-02-19T05:29:16.369Z,10.10
2023-02-19T05:31:48.995Z,10.18
2023-02-19T05:34:17.342Z,10.30
2023-02-19T05:36:45.530Z,10.85
2023-02-19T05:39:13.944Z,9.60
2023-02-19T05:41:42.362Z,12.23
2023-02-19T05:44:12.030Z,10.38
2023-02-19T05:46:40.340Z,11.70
2023-02-19T05:49:09.969Z,9.25
2023-02-19T05:51:38.175Z,9.13
2023-02-19T05:54:06.792Z,9.38
2023-02-19T05:56:37.201Z,9.70
2023-02-19T05:59:09.555Z,9.52
2023-02-19T06:01:37.735Z,10.35
2023-02-19T06:04:06.379Z,9.30
2023-02-19T06:06:37.049Z,8.32
2023-02-19T06:09:05.900Z,8.57
2023-02-19T06:11:34.214Z,8.30
2023-02-19T06:14:02.679Z,8.73
2023-02-19T06:16:33.174Z,8.80
2023-02-19T06:19:04.111Z,9.88
2023-02-19T06:21:32.418Z,8.95
2023-02-19T06:24:07.399Z,8.45
2023-02-19T06:26:36.885Z,10.02
2023-02-19T06:29:05.493Z,9.25
2023-02-19T06:31:33.709Z,9.95
2023-02-19T06:34:05.817Z,10.98
2023-02-19T06:36:34.331Z,10.82
2023-02-19T06:39:04.977Z,9.10
2023-02-19T06:41:33.825Z,10.05
2023-02-19T06:44:02.126Z,9.93
2023-02-19T06:46:30.308Z,11.38
2023-02-19T06:48:58.485Z,9.07
2023-02-19T06:51:29.517Z,9.80
2023-02-19T06:53:58.224Z,11.57
2023-02-19T06:56:30.447Z,8.80
2023-02-19T06:59:00.903Z,9.95
2023-02-19T07:01:30.404Z,10.93
2023-02-19T07:03:58.750Z,9.75
2023-02-19T07:06:28.287Z,10.65
2023-02-19T07:08:58.965Z,12.25
2023-02-19T07:11:32.301Z,10.77
2023-02-19T07:14:03.438Z,10.30
2023-02-19T07:16:32.041Z,11.05
2023-02-19T07:19:01.495Z,11.95
2023-02-19T07:21:30.826Z,10.82
2023-02-19T07:23:59.235Z,10.82
2023-02-19T07:26:28.840Z,10.00
2023-02-19T07:28:57.049Z,11.05
2023-02-19T07:31:26.072Z,10.48
2023-02-19T07:33:54.550Z,9.95
2023-02-19T07:36:24.450Z,9.30
2023-02-19T07:38:56.339Z,11.07
2023-02-19T07:41:25.493Z,9.48
2023-02-19T07:43:59.665Z,10.25
2023-02-19T07:46:28.213Z,10.23
2023-02-19T07:48:56.411Z,8.80
2023-02-19T07:51:24.830Z,9.90
2023-02-19T07:53:53.319Z,8.73
2023-02-19T07:56:21.931Z,8.68
2023-02-19T07:58:50.252Z,8.95
2023-02-19T08:01:43.112Z,9.18
2023-02-19T08:04:12.680Z,9.32
2023-02-19T08:06:42.147Z,7.60
2023-02-19T08:09:10.958Z,8.95
2023-02-19T08:11:56.662Z,9.68
2023-02-19T08:14:27.003Z,7.80
2023-02-19T08:16:56.807Z,8.35
2023-02-19T08:19:25.208Z,9.73
2023-02-19T08:21:53.865Z,8.82
2023-02-19T08:24:22.104Z,8.02
2023-02-19T08:26:50.518Z,8.90
2023-02-19T08:29:18.746Z,9.35
2023-02-19T08:31:47.150Z,8.98
2023-02-19T08:34:16.751Z,8.85
2023-02-19T08:36:45.109Z,9.07
2023-02-19T08:39:13.300Z,10.15
2023-02-19T08:41:41.620Z,10.55
2023-02-19T08:44:09.779Z,9.23
2023-02-19T08:46:37.970Z,9.73
2023-02-19T08:49:06.088Z,10.13
2023-02-19T08:51:35.557Z,9.68
2023-02-19T08:54:05.176Z,8.90
2023-02-19T08:56:33.348Z,10.10
2023-02-19T08:59:01.516Z,7.80
2023-02-19T09:01:29.743Z,8.38
2023-02-19T09:03:58.018Z,7.88
2023-02-19T09:06:26.213Z,7.63
2023-02-19T09:08:55.730Z,7.63
2023-02-19T09:11:23.921Z,8.98
2023-02-19T09:13:52.077Z,9.75
2023-02-19T09:16:20.237Z,9.98
2023-02-19T09:18:48.408Z,9.65
2023-02-19T09:21:16.595Z,9.27
2023-02-19T09:23:44.755Z,8.60
2023-02-19T09:26:14.344Z,9.07
2023-02-19T09:28:43.079Z,8.98
2023-02-19T09:31:14.591Z,9.55
2023-02-19T09:33:47.140Z,9.47
2023-02-19T09:36:18.520Z,8.23
2023-02-19T09:38:46.847Z,8.73
2023-02-19T09:41:31.810Z,8.27
2023-02-19T09:44:01.673Z,8.32
2023-02-19T09:46:34.146Z,9.05
2023-02-19T09:49:08.131Z,10.25
2023-02-19T09:51:40.477Z,10.85
2023-02-19T09:54:21.429Z,10.13
2023-02-19T09:56:51.712Z,10.13
2023-02-19T09:59:25.700Z,10.10
2023-02-19T10:02:01.812Z,9.00
2023-02-19T10:04:30.117Z,8.25
2023-02-19T10:07:03.590Z,9.80
2023-02-19T10:09:32.540Z,9.45
2023-02-19T10:12:02.415Z,10.45
2023-02-19T10:14:37.389Z,10.38
2023-02-19T10:17:07.627Z,9.77
2023-02-19T10:19:37.156Z,9.38
2023-02-19T10:22:05.909Z,9.75
2023-02-19T10:24:34.106Z,9.77
2023-02-19T10:27:03.667Z,9.57
2023-02-19T10:29:31.844Z,9.63
2023-02-19T10:32:23.918Z,9.02
2023-02-19T10:35:11.055Z,8.90
2023-02-19T10:37:45.312Z,8.95
2023-02-19T10:40:18.535Z,9.43
2023-02-19T10:42:50.819Z,10.60
2023-02-19T10:45:24.016Z,11.15
2023-02-19T10:47:52.915Z,12.60
2023-02-19T10:50:29.124Z,12.70
2023-02-19T10:53:00.683Z,13.30
2023-02-19T10:55:35.531Z,13.30
2023-02-19T10:58:26.529Z,11.90
2023-02-19T11:01:13.736Z,11.88
2023-02-19T11:03:42.811Z,11.20
2023-02-19T11:06:14.173Z,12.73
2023-02-19T11:08:53.706Z,11.18
2023-02-19T11:11:34.011Z,9.95
2023-02-19T11:14:13.991Z,11.80
2023-02-19T11:16:45.771Z,11.27
2023-02-19T11:19:30.418Z,13.13
2023-02-19T11:22:00.415Z,12.75
2023-02-19T11:24:35.025Z,11.52
2023-02-19T11:27:07.501Z,14.23
2023-02-19T11:29:37.108Z,14.32
2023-02-19T11:32:29.286Z,13.50
2023-02-19T11:35:19.782Z,13.00
2023-02-19T11:37:59.340Z,12.18
2023-02-19T11:40:40.966Z,10.98
2023-02-19T11:43:29.138Z,12.35
2023-02-19T11:46:09.519Z,11.68
2023-02-19T11:49:14.096Z,11.65
2023-02-19T11:51:55.716Z,11.95
2023-02-19T11:54:45.624Z,10.07
2023-02-19T11:57:32.412Z,10.18
2023-02-19T12:00:19.512Z,9.63
2023-02-19T12:03:10.712Z,8.95
2023-02-19T12:05:57.557Z,9.27
2023-02-19T12:09:24.205Z,9.93
2023-02-19T12:12:16.766Z,9.52
2023-02-19T12:15:25.003Z,10.23
2023-02-19T12:18:36.794Z,10.88
2023-02-19T12:21:22.557Z,13.90
2023-02-19T12:24:17.199Z,13.65
2023-02-19T12:27:00.319Z,13.02
2023-02-19T12:29:52.199Z,13.38
2023-02-19T12:32:44.083Z,14.93
2023-02-19T12:35:39.830Z,13.52
2023-02-19T12:38:24.505Z,13.32
2023-02-19T12:41:21.695Z,14.55
2023-02-19T12:43:56.904Z,12.60
2023-02-19T12:46:33.198Z,14.05
2023-02-19T12:49:10.798Z,13.80
2023-02-19T12:51:45.544Z,12.40
2023-02-19T12:54:23.554Z,11.40
2023-02-19T12:56:58.622Z,12.30
2023-02-19T12:59:33.937Z,12.70
2023-02-19T13:02:14.273Z,12.10
2023-02-19T13:04:50.934Z,10.57
2023-02-19T13:07:25.132Z,10.07
2023-02-19T13:09:59.037Z,10.88
2023-02-19T13:12:31.648Z,11.90
2023-02-19T13:17:39.923Z,10.23
2023-02-19T13:20:21.222Z,10.88
2023-02-19T13:23:18.474Z,9.40
2023-02-19T13:26:09.296Z,9.93
2023-02-19T13:29:10.478Z,7.75
2023-02-19T13:32:01.177Z,7.78
2023-02-19T13:34:49.909Z,8.95
2023-02-19T13:37:18.924Z,9.40
2023-02-19T13:39:50.490Z,9.10
2023-02-19T13:42:32.127Z,11.17
2023-02-19T13:45:01.607Z,8.40
2023-02-19T13:48:00.357Z,9.38
2023-02-19T13:50:30.371Z,9.98
2023-02-19T13:52:59.785Z,10.05
2023-02-19T13:55:53.188Z,10.02
2023-02-19T13:58:57.702Z,9.93
2023-02-19T14:02:14.262Z,10.43
2023-02-19T14:04:52.492Z,9.68
2023-02-19T14:07:54.259Z,10.52
2023-02-19T14:11:04.820Z,10.95
2023-02-19T14:14:06.466Z,10.65
2023-02-19T14:17:04.846Z,11.27
2023-02-19T14:19:55.922Z,10.13
2023-02-19T14:23:15.728Z,10.25
2023-02-19T14:25:50.301Z,9.57
2023-02-19T14:28:33.547Z,9.43
2023-02-19T14:31:10.984Z,9.77
2023-02-19T14:33:44.560Z,10.20
2023-02-19T14:36:23.529Z,9.23
2023-02-19T14:38:55.970Z,9.52
2023-02-19T14:41:25.688Z,9.10
2023-02-19T14:43:58.329Z,9.95
2023-02-19T14:49:07.601Z,8.57
2023-02-19T14:51:40.755Z,9.88
2023-02-19T14:54:17.388Z,8.45
2023-02-19T14:56:49.728Z,9.85
2023-02-19T14:59:27.852Z,9.73
2023-02-19T15:02:02.279Z,8.82
2023-02-19T15:04:36.626Z,9.32
2023-02-19T15:07:09.804Z,9.00
2023-02-19T15:09:44.326Z,10.32
2023-02-19T15:12:18.397Z,9.90
2023-02-19T15:14:50.353Z,9.95
2023-02-19T15:17:27.092Z,10.05
2023-02-19T15:19:56.417Z,10.60
2023-02-19T15:22:28.616Z,8.75
2023-02-19T15:24:57.279Z,9.30
2023-02-19T15:27:26.429Z,9.43
2023-02-19T15:29:55.952Z,9.30
2023-02-19T15:32:27.172Z,7.97
2023-02-19T15:34:56.845Z,8.77
2023-02-19T15:37:26.855Z,8.43
2023-02-19T15:39:56.705Z,9.45
2023-02-19T15:42:29.356Z,9.65
2023-02-19T15:47:40.881Z,10.30
2023-02-19T15:50:14.781Z,13.30
2023-02-19T15:52:50.209Z,10.43
2023-02-19T15:55:31.785Z,12.30
2023-02-19T15:58:10.185Z,11.07
2023-02-19T16:00:45.971Z,11.57
2023-02-19T16:03:19.046Z,11.02
2023-02-19T16:05:58.453Z,11.07
2023-02-19T16:08:31.413Z,12.25
2023-02-19T16:11:02.214Z,13.98
2023-02-19T16:13:34.893Z,12.13
2023-02-19T16:18:47.602Z,12.32
2023-02-19T16:21:21.265Z,11.68
2023-02-19T16:23:54.497Z,11.98
2023-02-19T16:26:23.300Z,12.70
2023-02-19T16:28:53.962Z,12.95
2023-02-19T16:31:24.820Z,12.15
2023-02-19T16:33:54.108Z,11.18
2023-02-19T16:36:41.207Z,12.57
2023-02-19T16:39:33.298Z,13.48
2023-02-19T16:42:19.857Z,12.30
2023-02-19T16:44:48.733Z,13.70
2023-02-19T16:47:34.506Z,14.15
2023-02-19T16:50:12.522Z,13.00
2023-02-19T16:52:52.699Z,13.73
2023-02-19T16:55:21.094Z,11.55
2023-02-19T16:57:49.346Z,13.23
2023-02-19T17:00:19.857Z,11.63
2023-02-19T17:02:52.817Z,13.05
2023-02-19T17:05:22.652Z,11.60
2023-02-19T17:07:51.559Z,11.70
2023-02-19T17:10:23.196Z,13.98
2023-02-19T17:12:51.533Z,13.95
2023-02-19T17:15:20.065Z,12.93
2023-02-19T17:17:50.085Z,12.43
2023-02-19T17:20:28.039Z,13.20
2023-02-19T17:22:57.039Z,12.65
2023-02-19T17:25:25.244Z,12.27
2023-02-19T17:27:53.402Z,11.95
2023-02-19T17:30:28.885Z,11.20
2023-02-19T17:32:58.859Z,13.18
2023-02-19T17:35:27.212Z,18.85
2023-02-19T17:37:55.399Z,9.68
2023-02-19T17:40:33.091Z,10.35
2023-02-19T17:43:01.630Z,10.20
2023-02-19T17:45:29.865Z,11.02
2023-02-19T17:47:59.833Z,9.80
2023-02-19T17:50:30.400Z,8.52
2023-02-19T17:52:59.137Z,7.70
2023-02-19T17:55:27.397Z,7.85
2023-02-19T17:57:55.580Z,6.80
2023-02-19T18:00:26.884Z,7.93
2023-02-19T18:02:55.435Z,7.18
2023-02-19T18:05:25.501Z,7.10
2023-02-19T18:07:53.727Z,7.30
2023-02-19T18:10:24.568Z,7.55
2023-02-19T18:12:53.430Z,7.00
2023-02-19T18:15:26.138Z,7.18
2023-02-19T18:17:54.729Z,6.97
2023-02-19T18:20:27.669Z,6.63
2023-02-19T18:22:57.632Z,7.30
2023-02-19T18:25:26.309Z,7.07
2023-02-19T18:27:54.568Z,6.50
2023-02-19T18:30:24.199Z,6.18
2023-02-19T18:32:53.085Z,6.65
2023-02-19T18:35:23.264Z,6.25
2023-02-19T18:37:53.168Z,5.95
2023-02-19T18:40:22.487Z,5.90
2023-02-19T18:42:50.663Z,7.03
2023-02-19T18:45:19.224Z,6.30
2023-02-19T18:47:48.448Z,6.35
2023-02-19T18:50:17.727Z,6.10
2023-02-19T18:52:47.521Z,6.40
2023-02-19T18:55:15.761Z,6.88
2023-02-19T18:57:44.037Z,6.60
2023-02-19T19:00:18.292Z,6.47
2023-02-19T19:02:49.781Z,6.88
2023-02-19T19:05:22.946Z,6.40
2023-02-19T19:07:54.046Z,7.55
2023-02-19T19:10:22.551Z,7.00
2023-02-19T19:12:51.621Z,6.57
2023-02-19T19:15:20.277Z,7.13
2023-02-19T19:17:49.492Z,7.72
2023-02-19T19:20:19.811Z,7.65
2023-02-19T19:22:52.170Z,6.97
2023-02-19T19:25:21.514Z,6.70
2023-02-19T19:27:51.597Z,7.00
2023-02-19T19:30:20.945Z,7.30
2023-02-19T19:32:50.246Z,7.68
2023-02-19T19:35:19.807Z,7.50
2023-02-19T19:37:48.417Z,7.95
2023-02-19T19:40:19.396Z,9.00
2023-02-19T19:42:47.803Z,9.10
2023-02-19T19:45:16.487Z,8.25
2023-02-19T19:47:44.665Z,9.05
2023-02-19T19:50:14.386Z,9.50
2023-02-19T19:52:42.797Z,8.50
2023-02-19T19:55:11.127Z,9.15
2023-02-19T19:57:41.052Z,10.23
2023-02-19T20:00:13.686Z,9.95
2023-02-19T20:02:41.878Z,9.25
2023-02-19T20:05:10.316Z,9.75
2023-02-19T20:07:38.508Z,9.63
2023-02-19T20:10:08.709Z,9.95
2023-02-19T20:12:36.863Z,9.80
2023-02-19T20:15:07.362Z,10.07
2023-02-19T20:17:35.576Z,10.68
2023-02-19T20:20:04.180Z,11.55
2023-02-19T20:22:32.416Z,11.57
2023-02-19T20:25:00.695Z,11.93
2023-02-19T20:27:28.918Z,11.35
2023-02-19T20:29:57.170Z,11.52
2023-02-19T20:32:29.039Z,12.40
2023-02-19T20:34:57.238Z,13.70
2023-02-19T20:37:25.391Z,10.60
2023-02-19T20:39:53.558Z,10.88
2023-02-19T20:42:22.007Z,10.93
2023-02-19T20:44:50.268Z,10.98
2023-02-19T20:47:20.278Z,11.07
2023-02-19T20:49:51.589Z,10.95
2023-02-19T20:52:20.708Z,10.75
2023-02-19T20:54:48.947Z,10.40
2023-02-19T20:57:17.066Z,10.85
2023-02-19T20:59:45.283Z,11.00
2023-02-19T21:02:19.313Z,11.40
2023-02-19T21:04:49.136Z,10.80
2023-02-19T21:07:20.361Z,10.68
2023-02-19T21:09:52.019Z,10.20
2023-02-19T21:12:22.300Z,9.87
2023-02-19T21:14:51.098Z,9.82
2023-02-19T21:17:19.369Z,10.65
2023-02-19T21:19:50.327Z,10.82
2023-02-19T21:22:18.631Z,8.95
2023-02-19T21:24:49.490Z,9.95
2023-02-19T21:27:17.790Z,9.82
2023-02-19T21:29:46.844Z,9.40
2023-02-19T21:32:15.217Z,9.48
2023-02-19T21:34:43.839Z,9.75
2023-02-19T21:37:13.358Z,10.13
2023-02-19T21:39:42.786Z,10.88
2023-02-19T21:42:11.142Z,9.50
2023-02-19T21:44:39.686Z,10.23
2023-02-19T21:47:08.755Z,10.63
2023-02-19T21:49:41.815Z,10.48
2023-02-19T21:52:11.051Z,10.27
2023-02-19T21:54:40.703Z,10.32
2023-02-19T21:57:09.356Z,11.43
2023-02-19T21:59:37.596Z,10.30
2023-02-19T22:02:05.786Z,10.95
2023-02-19T22:04:33.947Z,11.32
2023-02-19T22:07:02.135Z,11.57
2023-02-19T22:09:30.262Z,11.18
2023-02-19T22:11:59.883Z,11.80
2023-02-19T22:14:28.040Z,10.57
2023-02-19T22:16:56.311Z,11.82
2023-02-19T22:19:24.543Z,13.13
2023-02-19T22:21:52.719Z,12.68
2023-02-19T22:24:22.746Z,12.25
2023-02-19T22:26:55.857Z,14.60
2023-02-19T22:29:26.291Z,12.75
2023-02-19T22:31:56.377Z,13.63
2023-02-19T22:34:24.836Z,14.50
2023-02-19T22:36:53.056Z,14.93
2023-02-19T22:39:23.978Z,14.10
2023-02-19T22:41:55.356Z,14.85
2023-02-19T22:44:26.955Z,14.73
2023-02-19T22:46:57.728Z,15.23
2023-02-19T22:49:26.243Z,13.55
2023-02-19T22:52:03.022Z,14.77
2023-02-19T22:54:31.378Z,14.15
2023-02-19T22:56:59.654Z,13.25
2023-02-19T22:59:29.295Z,13.35
2023-02-19T23:01:57.934Z,11.88
2023-02-19T23:04:27.053Z,11.48
2023-02-19T23:06:55.323Z,11.90
2023-02-19T23:09:27.083Z,12.27
2023-02-19T23:12:01.990Z,11.83
2023-02-19T23:14:31.582Z,12.38
2023-02-19T23:17:00.115Z,11.10
2023-02-19T23:19:28.558Z,11.65
2023-02-19T23:21:57.048Z,12.35
2023-02-19T23:24:25.350Z,12.07
2023-02-19T23:26:54.871Z,11.65
2023-02-19T23:29:26.623Z,11.75
2023-02-19T23:31:56.154Z,10.53
2023-02-19T23:34:25.297Z,12.00
2023-02-19T23:36:55.320Z,13.57
2023-02-19T23:39:23.816Z,11.27
2023-02-19T23:41:55.466Z,12.15
2023-02-19T23:44:25.948Z,12.43
2023-02-19T23:46:55.422Z,13.45
2023-02-19T23:49:23.885Z,13.38
2023-02-19T23:51:52.237Z,14.10
2023-02-19T23:54:20.417Z,13.57
2023-02-19T23:56:48.527Z,14.02
2023-02-19T23:59:16.702Z,14.30
